sensor_id;sensor_type;location;lat;lon;timestamp;P1;durP1;ratioP1;P2;durP2;ratioP2
10283;SDS011;5187;52.378;9.018;2022-08-03T00:02:14;7.93;;;7.22;;
10283;SDS011;5187;52.378;9.018;2022-08-03T00:04:43;8.20;;;7.43;;
10283;SDS011;5187;52.378;9.018;2022-08-03T00:07:12;7.65;;;7.05;;
10283;SDS011;5187;52.378;9.018;2022-08-03T00:09:40;7.93;;;7.25;;
10283;SDS011;5187;52.378;9.018;2022-08-03T00:12:10;8.15;;;7.43;;
10283;SDS011;5187;52.378;9.018;2022-08-03T00:14:39;8.07;;;7.28;;
10283;SDS011;5187;52.378;9.018;2022-08-03T00:17:07;6.88;;;6.30;;
10283;SDS011;5187;52.378;9.018;2022-08-03T00:19:36;7.63;;;6.93;;
10283;SDS011;5187;52.378;9.018;2022-08-03T00:22:04;7.78;;;7.15;;
10283;SDS011;5187;52.378;9.018;2022-08-03T00:24:32;8.05;;;7.35;;
10283;SDS011;5187;52.378;9.018;2022-08-03T00:27:01;7.97;;;7.13;;
10283;SDS011;5187;52.378;9.018;2022-08-03T00:29:31;7.93;;;7.22;;
10283;SDS011;5187;52.378;9.018;2022-08-03T00:32:20;8.30;;;7.70;;
10283;SDS011;5187;52.378;9.018;2022-08-03T00:34:50;8.40;;;7.75;;
10283;SDS011;5187;52.378;9.018;2022-08-03T00:37:24;8.05;;;7.35;;
10283;SDS011;5187;52.378;9.018;2022-08-03T00:40:07;8.23;;;7.47;;
10283;SDS011;5187;52.378;9.018;2022-08-03T00:42:44;7.95;;;7.32;;
10283;SDS011;5187;52.378;9.018;2022-08-03T00:45:14;8.40;;;7.70;;
10283;SDS011;5187;52.378;9.018;2022-08-03T00:47:43;7.97;;;7.32;;
10283;SDS011;5187;52.378;9.018;2022-08-03T00:50:11;8.25;;;7.53;;
10283;SDS011;5187;52.378;9.018;2022-08-03T00:52:40;8.82;;;8.10;;
10283;SDS011;5187;52.378;9.018;2022-08-03T00:55:09;8.25;;;7.55;;
10283;SDS011;5187;52.378;9.018;2022-08-03T00:57:37;7.93;;;7.32;;
10283;SDS011;5187;52.378;9.018;2022-08-03T01:00:06;11.23;;;8.20;;
10283;SDS011;5187;52.378;9.018;2022-08-03T01:02:37;8.35;;;7.75;;
10283;SDS011;5187;52.378;9.018;2022-08-03T01:05:06;8.00;;;7.30;;
10283;SDS011;5187;52.378;9.018;2022-08-03T01:07:47;9.25;;;8.55;;
10283;SDS011;5187;52.378;9.018;2022-08-03T01:10:21;9.07;;;8.32;;
10283;SDS011;5187;52.378;9.018;2022-08-03T01:12:54;8.65;;;7.85;;
10283;SDS011;5187;52.378;9.018;2022-08-03T01:15:28;8.07;;;7.28;;
10283;SDS011;5187;52.378;9.018;2022-08-03T01:18:01;7.65;;;7.15;;
10283;SDS011;5187;52.378;9.018;2022-08-03T01:20:31;8.63;;;7.60;;
10283;SDS011;5187;52.378;9.018;2022-08-03T01:23:14;8.50;;;7.70;;
10283;SDS011;5187;52.378;9.018;2022-08-03T01:25:58;8.10;;;7.50;;
10283;SDS011;5187;52.378;9.018;2022-08-03T01:28:36;8.25;;;7.43;;
10283;SDS011;5187;52.378;9.018;2022-08-03T01:31:08;9.50;;;7.60;;
10283;SDS011;5187;52.378;9.018;2022-08-03T01:33:38;8.10;;;7.32;;
10283;SDS011;5187;52.378;9.018;2022-08-03T01:36:09;8.15;;;7.47;;
10283;SDS011;5187;52.378;9.018;2022-08-03T01:38:40;8.25;;;7.53;;
10283;SDS011;5187;52.378;9.018;2022-08-03T01:41:10;8.50;;;7.85;;
10283;SDS011;5187;52.378;9.018;2022-08-03T01:43:39;8.82;;;7.55;;
10283;SDS011;5187;52.378;9.018;2022-08-03T01:46:31;8.30;;;7.60;;
10283;SDS011;5187;52.378;9.018;2022-08-03T01:49:00;9.18;;;8.00;;
10283;SDS011;5187;52.378;9.018;2022-08-03T01:51:34;8.70;;;7.93;;
10283;SDS011;5187;52.378;9.018;2022-08-03T01:54:24;8.80;;;8.02;;
10283;SDS011;5187;52.378;9.018;2022-08-03T01:56:53;8.38;;;7.68;;
10283;SDS011;5187;52.378;9.018;2022-08-03T01:59:24;9.77;;;8.48;;
10283;SDS011;5187;52.378;9.018;2022-08-03T02:01:54;9.25;;;8.40;;
10283;SDS011;5187;52.378;9.018;2022-08-03T02:04:44;9.35;;;8.45;;
10283;SDS011;5187;52.378;9.018;2022-08-03T02:07:14;8.20;;;7.53;;
10283;SDS011;5187;52.378;9.018;2022-08-03T02:09:43;9.50;;;8.60;;
10283;SDS011;5187;52.378;9.018;2022-08-03T02:12:12;9.27;;;8.43;;
10283;SDS011;5187;52.378;9.018;2022-08-03T02:14:42;8.82;;;8.02;;
10283;SDS011;5187;52.378;9.018;2022-08-03T02:17:12;9.30;;;8.50;;
10283;SDS011;5187;52.378;9.018;2022-08-03T02:19:41;8.82;;;8.13;;
10283;SDS011;5187;52.378;9.018;2022-08-03T02:22:10;9.05;;;8.25;;
10283;SDS011;5187;52.378;9.018;2022-08-03T02:24:39;9.18;;;8.32;;
10283;SDS011;5187;52.378;9.018;2022-08-03T02:27:15;9.23;;;8.52;;
10283;SDS011;5187;52.378;9.018;2022-08-03T02:29:45;9.25;;;8.55;;
10283;SDS011;5187;52.378;9.018;2022-08-03T02:32:19;9.20;;;8.50;;
10283;SDS011;5187;52.378;9.018;2022-08-03T02:34:49;9.95;;;9.15;;
10283;SDS011;5187;52.378;9.018;2022-08-03T02:37:18;9.35;;;8.65;;
10283;SDS011;5187;52.378;9.018;2022-08-03T02:39:48;10.10;;;9.30;;
10283;SDS011;5187;52.378;9.018;2022-08-03T02:42:19;9.57;;;8.82;;
10283;SDS011;5187;52.378;9.018;2022-08-03T02:44:48;9.52;;;8.70;;
10283;SDS011;5187;52.378;9.018;2022-08-03T02:47:20;8.95;;;8.15;;
10283;SDS011;5187;52.378;9.018;2022-08-03T02:49:48;8.73;;;7.97;;
10283;SDS011;5187;52.378;9.018;2022-08-03T02:52:18;8.50;;;7.80;;
10283;SDS011;5187;52.378;9.018;2022-08-03T02:54:49;8.90;;;8.20;;
10283;SDS011;5187;52.378;9.018;2022-08-03T02:57:18;8.73;;;8.00;;
10283;SDS011;5187;52.378;9.018;2022-08-03T02:59:48;10.05;;;9.15;;
10283;SDS011;5187;52.378;9.018;2022-08-03T03:02:17;9.57;;;8.70;;
10283;SDS011;5187;52.378;9.018;2022-08-03T03:04:47;8.77;;;8.07;;
10283;SDS011;5187;52.378;9.018;2022-08-03T03:07:36;8.57;;;7.78;;
10283;SDS011;5187;52.378;9.018;2022-08-03T03:10:18;10.80;;;9.07;;
10283;SDS011;5187;52.378;9.018;2022-08-03T03:12:48;9.73;;;8.80;;
10283;SDS011;5187;52.378;9.018;2022-08-03T03:15:17;10.07;;;9.10;;
10283;SDS011;5187;52.378;9.018;2022-08-03T03:17:46;9.10;;;8.40;;
10283;SDS011;5187;52.378;9.018;2022-08-03T03:20:16;9.73;;;8.82;;
10283;SDS011;5187;52.378;9.018;2022-08-03T03:22:57;10.88;;;8.73;;
10283;SDS011;5187;52.378;9.018;2022-08-03T03:25:26;8.90;;;8.20;;
10283;SDS011;5187;52.378;9.018;2022-08-03T03:27:55;10.00;;;9.20;;
10283;SDS011;5187;52.378;9.018;2022-08-03T03:30:24;10.02;;;9.30;;
10283;SDS011;5187;52.378;9.018;2022-08-03T03:32:52;9.90;;;9.20;;
10283;SDS011;5187;52.378;9.018;2022-08-03T03:35:22;9.60;;;8.80;;
10283;SDS011;5187;52.378;9.018;2022-08-03T03:37:51;9.68;;;8.73;;
10283;SDS011;5187;52.378;9.018;2022-08-03T03:40:20;9.73;;;8.82;;
10283;SDS011;5187;52.378;9.018;2022-08-03T03:42:48;9.27;;;8.57;;
10283;SDS011;5187;52.378;9.018;2022-08-03T03:45:17;9.88;;;8.98;;
10283;SDS011;5187;52.378;9.018;2022-08-03T03:47:45;8.80;;;8.10;;
10283;SDS011;5187;52.378;9.018;2022-08-03T03:50:14;9.07;;;8.25;;
10283;SDS011;5187;52.378;9.018;2022-08-03T03:52:46;8.90;;;8.18;;
10283;SDS011;5187;52.378;9.018;2022-08-03T03:55:15;9.93;;;9.13;;
10283;SDS011;5187;52.378;9.018;2022-08-03T03:57:44;9.00;;;8.30;;
10283;SDS011;5187;52.378;9.018;2022-08-03T04:00:13;9.50;;;8.52;;
10283;SDS011;5187;52.378;9.018;2022-08-03T04:02:42;8.77;;;8.07;;
10283;SDS011;5187;52.378;9.018;2022-08-03T04:05:10;9.98;;;9.00;;
10283;SDS011;5187;52.378;9.018;2022-08-03T04:07:58;9.73;;;8.63;;
10283;SDS011;5187;52.378;9.018;2022-08-03T04:10:47;9.90;;;9.02;;
10283;SDS011;5187;52.378;9.018;2022-08-03T04:13:28;11.15;;;8.30;;
10283;SDS011;5187;52.378;9.018;2022-08-03T04:15:58;9.70;;;8.77;;
10283;SDS011;5187;52.378;9.018;2022-08-03T04:18:28;9.15;;;8.45;;
10283;SDS011;5187;52.378;9.018;2022-08-03T04:20:57;9.63;;;8.68;;
10283;SDS011;5187;52.378;9.018;2022-08-03T04:23:27;8.98;;;8.27;;
10283;SDS011;5187;52.378;9.018;2022-08-03T04:25:57;8.75;;;7.95;;
10283;SDS011;5187;52.378;9.018;2022-08-03T04:28:27;9.73;;;8.98;;
10283;SDS011;5187;52.378;9.018;2022-08-03T04:30:57;9.45;;;8.55;;
10283;SDS011;5187;52.378;9.018;2022-08-03T04:33:26;10.05;;;9.20;;
10283;SDS011;5187;52.378;9.018;2022-08-03T04:35:58;8.82;;;8.02;;
10283;SDS011;5187;52.378;9.018;2022-08-03T04:38:30;9.93;;;8.70;;
10283;SDS011;5187;52.378;9.018;2022-08-03T04:41:00;9.40;;;8.48;;
10283;SDS011;5187;52.378;9.018;2022-08-03T04:43:28;9.18;;;8.38;;
10283;SDS011;5187;52.378;9.018;2022-08-03T04:45:59;9.38;;;8.48;;
10283;SDS011;5187;52.378;9.018;2022-08-03T04:48:28;8.20;;;7.50;;
10283;SDS011;5187;52.378;9.018;2022-08-03T04:50:57;10.05;;;8.77;;
10283;SDS011;5187;52.378;9.018;2022-08-03T04:53:31;9.50;;;8.57;;
10283;SDS011;5187;52.378;9.018;2022-08-03T04:56:02;9.95;;;9.15;;
10283;SDS011;5187;52.378;9.018;2022-08-03T04:58:31;17.02;;;9.15;;
10283;SDS011;5187;52.378;9.018;2022-08-03T05:01:00;9.52;;;8.60;;
10283;SDS011;5187;52.378;9.018;2022-08-03T05:03:28;10.43;;;8.18;;
10283;SDS011;5187;52.378;9.018;2022-08-03T05:05:57;9.95;;;8.95;;
10283;SDS011;5187;52.378;9.018;2022-08-03T05:08:36;9.70;;;8.90;;
10283;SDS011;5187;52.378;9.018;2022-08-03T05:11:12;9.63;;;8.93;;
10283;SDS011;5187;52.378;9.018;2022-08-03T05:13:41;10.30;;;9.32;;
10283;SDS011;5187;52.378;9.018;2022-08-03T05:16:09;9.70;;;8.90;;
10283;SDS011;5187;52.378;9.018;2022-08-03T05:18:39;9.82;;;8.93;;
10283;SDS011;5187;52.378;9.018;2022-08-03T05:21:07;9.68;;;8.82;;
10283;SDS011;5187;52.378;9.018;2022-08-03T05:23:37;9.80;;;8.80;;
10283;SDS011;5187;52.378;9.018;2022-08-03T05:26:05;9.25;;;8.35;;
10283;SDS011;5187;52.378;9.018;2022-08-03T05:28:34;9.27;;;8.40;;
10283;SDS011;5187;52.378;9.018;2022-08-03T05:31:02;8.45;;;7.75;;
10283;SDS011;5187;52.378;9.018;2022-08-03T05:33:31;8.13;;;7.35;;
10283;SDS011;5187;52.378;9.018;2022-08-03T05:35:59;7.97;;;7.18;;
10283;SDS011;5187;52.378;9.018;2022-08-03T05:38:29;6.93;;;6.32;;
10283;SDS011;5187;52.378;9.018;2022-08-03T05:41:02;7.55;;;6.80;;
10283;SDS011;5187;52.378;9.018;2022-08-03T05:43:48;7.35;;;6.65;;
10283;SDS011;5187;52.378;9.018;2022-08-03T05:46:16;6.57;;;5.85;;
10283;SDS011;5187;52.378;9.018;2022-08-03T05:48:45;6.35;;;5.75;;
10283;SDS011;5187;52.378;9.018;2022-08-03T05:51:14;5.68;;;5.18;;
10283;SDS011;5187;52.378;9.018;2022-08-03T05:53:42;5.60;;;5.10;;
10283;SDS011;5187;52.378;9.018;2022-08-03T05:56:12;7.20;;;4.65;;
10283;SDS011;5187;52.378;9.018;2022-08-03T05:58:42;5.50;;;4.03;;
10283;SDS011;5187;52.378;9.018;2022-08-03T06:01:11;5.13;;;4.47;;
10283;SDS011;5187;52.378;9.018;2022-08-03T06:03:40;4.63;;;4.22;;
10283;SDS011;5187;52.378;9.018;2022-08-03T06:06:08;5.32;;;4.13;;
10283;SDS011;5187;52.378;9.018;2022-08-03T06:08:37;5.82;;;4.50;;
10283;SDS011;5187;52.378;9.018;2022-08-03T06:11:06;5.78;;;4.43;;
10283;SDS011;5187;52.378;9.018;2022-08-03T06:13:36;4.88;;;4.38;;
10283;SDS011;5187;52.378;9.018;2022-08-03T06:16:05;4.43;;;4.03;;
10283;SDS011;5187;52.378;9.018;2022-08-03T06:18:33;4.55;;;4.10;;
10283;SDS011;5187;52.378;9.018;2022-08-03T06:21:02;5.30;;;3.95;;
10283;SDS011;5187;52.378;9.018;2022-08-03T06:23:41;6.20;;;4.13;;
10283;SDS011;5187;52.378;9.018;2022-08-03T06:26:18;4.25;;;3.85;;
10283;SDS011;5187;52.378;9.018;2022-08-03T06:28:48;6.63;;;4.05;;
10283;SDS011;5187;52.378;9.018;2022-08-03T06:31:20;6.22;;;4.32;;
10283;SDS011;5187;52.378;9.018;2022-08-03T06:33:49;5.32;;;3.60;;
10283;SDS011;5187;52.378;9.018;2022-08-03T06:36:37;4.50;;;3.60;;
10283;SDS011;5187;52.378;9.018;2022-08-03T06:39:06;4.90;;;3.35;;
10283;SDS011;5187;52.378;9.018;2022-08-03T06:41:34;4.72;;;3.13;;
10283;SDS011;5187;52.378;9.018;2022-08-03T06:44:11;3.50;;;3.13;;
10283;SDS011;5187;52.378;9.018;2022-08-03T06:46:39;4.13;;;3.33;;
10283;SDS011;5187;52.378;9.018;2022-08-03T06:49:08;3.33;;;2.60;;
10283;SDS011;5187;52.378;9.018;2022-08-03T06:51:37;3.40;;;3.10;;
10283;SDS011;5187;52.378;9.018;2022-08-03T06:54:26;6.07;;;3.10;;
10283;SDS011;5187;52.378;9.018;2022-08-03T06:57:00;3.88;;;2.92;;
10283;SDS011;5187;52.378;9.018;2022-08-03T06:59:30;3.38;;;2.75;;
10283;SDS011;5187;52.378;9.018;2022-08-03T07:02:19;5.40;;;2.90;;
10283;SDS011;5187;52.378;9.018;2022-08-03T07:04:47;4.63;;;3.03;;
10283;SDS011;5187;52.378;9.018;2022-08-03T07:07:16;6.03;;;3.00;;
10283;SDS011;5187;52.378;9.018;2022-08-03T07:09:44;3.33;;;3.03;;
10283;SDS011;5187;52.378;9.018;2022-08-03T07:12:23;3.70;;;2.90;;
10283;SDS011;5187;52.378;9.018;2022-08-03T07:14:53;4.80;;;2.65;;
10283;SDS011;5187;52.378;9.018;2022-08-03T07:17:26;3.17;;;2.72;;
10283;SDS011;5187;52.378;9.018;2022-08-03T07:19:54;3.50;;;2.70;;
10283;SDS011;5187;52.378;9.018;2022-08-03T07:22:23;3.60;;;2.83;;
10283;SDS011;5187;52.378;9.018;2022-08-03T07:24:51;4.70;;;2.58;;
10283;SDS011;5187;52.378;9.018;2022-08-03T07:27:20;3.72;;;2.47;;
10283;SDS011;5187;52.378;9.018;2022-08-03T07:29:48;3.38;;;2.53;;
10283;SDS011;5187;52.378;9.018;2022-08-03T07:32:18;4.22;;;2.33;;
10283;SDS011;5187;52.378;9.018;2022-08-03T07:34:46;3.00;;;2.10;;
10283;SDS011;5187;52.378;9.018;2022-08-03T07:37:15;3.08;;;2.25;;
10283;SDS011;5187;52.378;9.018;2022-08-03T07:39:43;4.70;;;2.60;;
10283;SDS011;5187;52.378;9.018;2022-08-03T07:42:12;4.20;;;2.47;;
10283;SDS011;5187;52.378;9.018;2022-08-03T07:44:41;2.58;;;2.38;;
10283;SDS011;5187;52.378;9.018;2022-08-03T07:47:10;4.63;;;2.47;;
10283;SDS011;5187;52.378;9.018;2022-08-03T07:49:49;3.25;;;2.30;;
10283;SDS011;5187;52.378;9.018;2022-08-03T07:52:17;3.47;;;2.42;;
10283;SDS011;5187;52.378;9.018;2022-08-03T07:55:04;2.45;;;2.25;;
10283;SDS011;5187;52.378;9.018;2022-08-03T07:57:33;3.35;;;2.33;;
10283;SDS011;5187;52.378;9.018;2022-08-03T08:00:02;3.90;;;2.33;;
10283;SDS011;5187;52.378;9.018;2022-08-03T08:02:31;3.70;;;2.28;;
10283;SDS011;5187;52.378;9.018;2022-08-03T08:05:00;4.30;;;2.45;;
10283;SDS011;5187;52.378;9.018;2022-08-03T08:07:31;2.78;;;2.15;;
10283;SDS011;5187;52.378;9.018;2022-08-03T08:09:59;5.28;;;2.28;;
10283;SDS011;5187;52.378;9.018;2022-08-03T08:12:28;3.95;;;1.77;;
10283;SDS011;5187;52.378;9.018;2022-08-03T08:14:56;4.25;;;2.00;;
10283;SDS011;5187;52.378;9.018;2022-08-03T08:17:25;3.63;;;2.22;;
10283;SDS011;5187;52.378;9.018;2022-08-03T08:19:53;5.38;;;1.90;;
10283;SDS011;5187;52.378;9.018;2022-08-03T08:22:24;2.95;;;2.10;;
10283;SDS011;5187;52.378;9.018;2022-08-03T08:24:56;5.53;;;2.00;;
10283;SDS011;5187;52.378;9.018;2022-08-03T08:27:26;5.28;;;2.20;;
10283;SDS011;5187;52.378;9.018;2022-08-03T08:30:16;3.35;;;2.10;;
10283;SDS011;5187;52.378;9.018;2022-08-03T08:32:45;3.38;;;2.13;;
10283;SDS011;5187;52.378;9.018;2022-08-03T08:35:14;4.28;;;2.08;;
10283;SDS011;5187;52.378;9.018;2022-08-03T08:37:44;4.72;;;2.20;;
10283;SDS011;5187;52.378;9.018;2022-08-03T08:40:16;2.95;;;2.20;;
10283;SDS011;5187;52.378;9.018;2022-08-03T08:42:47;4.57;;;2.08;;
10283;SDS011;5187;52.378;9.018;2022-08-03T08:45:24;3.08;;;1.92;;
10283;SDS011;5187;52.378;9.018;2022-08-03T08:47:54;4.60;;;1.92;;
10283;SDS011;5187;52.378;9.018;2022-08-03T08:50:27;5.70;;;2.10;;
10283;SDS011;5187;52.378;9.018;2022-08-03T08:52:59;2.13;;;1.88;;
10283;SDS011;5187;52.378;9.018;2022-08-03T08:55:28;2.65;;;1.83;;
10283;SDS011;5187;52.378;9.018;2022-08-03T08:58:17;3.35;;;2.00;;
10283;SDS011;5187;52.378;9.018;2022-08-03T09:00:46;3.20;;;1.80;;
10283;SDS011;5187;52.378;9.018;2022-08-03T09:03:15;3.33;;;1.83;;
10283;SDS011;5187;52.378;9.018;2022-08-03T09:05:55;2.65;;;1.80;;
10283;SDS011;5187;52.378;9.018;2022-08-03T09:08:25;2.92;;;1.88;;
10283;SDS011;5187;52.378;9.018;2022-08-03T09:10:54;3.22;;;1.80;;
10283;SDS011;5187;52.378;9.018;2022-08-03T09:13:22;3.50;;;1.67;;
10283;SDS011;5187;52.378;9.018;2022-08-03T09:18:34;2.33;;;1.58;;
10283;SDS011;5187;52.378;9.018;2022-08-03T09:21:12;3.15;;;2.05;;
10283;SDS011;5187;52.378;9.018;2022-08-03T09:24:01;6.00;;;1.95;;
10283;SDS011;5187;52.378;9.018;2022-08-03T09:26:33;7.22;;;2.10;;
10283;SDS011;5187;52.378;9.018;2022-08-03T09:29:02;3.65;;;1.95;;
10283;SDS011;5187;52.378;9.018;2022-08-03T09:31:40;3.42;;;2.03;;
10283;SDS011;5187;52.378;9.018;2022-08-03T09:34:10;3.00;;;1.80;;
10283;SDS011;5187;52.378;9.018;2022-08-03T09:36:40;2.85;;;1.92;;
10283;SDS011;5187;52.378;9.018;2022-08-03T09:39:10;3.58;;;2.10;;
10283;SDS011;5187;52.378;9.018;2022-08-03T09:41:39;4.22;;;1.83;;
10283;SDS011;5187;52.378;9.018;2022-08-03T09:44:08;2.65;;;1.95;;
10283;SDS011;5187;52.378;9.018;2022-08-03T09:46:51;3.17;;;1.80;;
10283;SDS011;5187;52.378;9.018;2022-08-03T09:49:19;3.17;;;2.00;;
10283;SDS011;5187;52.378;9.018;2022-08-03T09:52:10;2.67;;;2.00;;
10283;SDS011;5187;52.378;9.018;2022-08-03T09:55:01;4.97;;;1.73;;
10283;SDS011;5187;52.378;9.018;2022-08-03T09:57:50;2.70;;;1.92;;
10283;SDS011;5187;52.378;9.018;2022-08-03T10:03:02;3.50;;;2.00;;
10283;SDS011;5187;52.378;9.018;2022-08-03T10:05:31;1.98;;;1.60;;
10283;SDS011;5187;52.378;9.018;2022-08-03T10:08:09;3.90;;;1.95;;
10283;SDS011;5187;52.378;9.018;2022-08-03T10:10:43;4.38;;;1.88;;
10283;SDS011;5187;52.378;9.018;2022-08-03T10:13:12;3.42;;;1.70;;
10283;SDS011;5187;52.378;9.018;2022-08-03T10:15:41;3.63;;;2.25;;
10283;SDS011;5187;52.378;9.018;2022-08-03T10:18:31;3.97;;;2.10;;
10283;SDS011;5187;52.378;9.018;2022-08-03T10:21:02;2.67;;;2.00;;
10283;SDS011;5187;52.378;9.018;2022-08-03T10:26:17;3.03;;;1.90;;
10283;SDS011;5187;52.378;9.018;2022-08-03T10:28:47;4.43;;;2.03;;
10283;SDS011;5187;52.378;9.018;2022-08-03T10:31:17;4.30;;;1.90;;
10283;SDS011;5187;52.378;9.018;2022-08-03T10:33:50;4.38;;;2.00;;
10283;SDS011;5187;52.378;9.018;2022-08-03T10:36:20;4.07;;;2.20;;
10283;SDS011;5187;52.378;9.018;2022-08-03T10:38:50;5.45;;;2.13;;
10283;SDS011;5187;52.378;9.018;2022-08-03T10:41:21;3.65;;;1.85;;
10283;SDS011;5187;52.378;9.018;2022-08-03T10:43:51;4.30;;;1.95;;
10283;SDS011;5187;52.378;9.018;2022-08-03T10:46:22;2.70;;;1.95;;
10283;SDS011;5187;52.378;9.018;2022-08-03T10:48:52;3.28;;;1.90;;
10283;SDS011;5187;52.378;9.018;2022-08-03T10:51:22;3.15;;;1.80;;
10283;SDS011;5187;52.378;9.018;2022-08-03T10:53:50;4.82;;;1.98;;
10283;SDS011;5187;52.378;9.018;2022-08-03T10:56:42;4.57;;;1.85;;
10283;SDS011;5187;52.378;9.018;2022-08-03T11:05:24;3.33;;;1.75;;
10283;SDS011;5187;52.378;9.018;2022-08-03T11:10:37;4.00;;;1.85;;
10283;SDS011;5187;52.378;9.018;2022-08-03T11:13:08;2.50;;;1.75;;
10283;SDS011;5187;52.378;9.018;2022-08-03T11:15:43;2.80;;;2.00;;
10283;SDS011;5187;52.378;9.018;2022-08-03T11:18:12;5.47;;;1.90;;
10283;SDS011;5187;52.378;9.018;2022-08-03T11:20:42;4.90;;;2.00;;
10283;SDS011;5187;52.378;9.018;2022-08-03T11:23:12;3.85;;;2.08;;
10283;SDS011;5187;52.378;9.018;2022-08-03T11:26:19;2.65;;;1.90;;
10283;SDS011;5187;52.378;9.018;2022-08-03T11:31:49;11.13;;;2.30;;
10283;SDS011;5187;52.378;9.018;2022-08-03T11:34:18;4.35;;;2.05;;
10283;SDS011;5187;52.378;9.018;2022-08-03T11:39:42;4.95;;;1.90;;
10283;SDS011;5187;52.378;9.018;2022-08-03T11:44:56;5.75;;;1.80;;
10283;SDS011;5187;52.378;9.018;2022-08-03T11:47:27;2.85;;;1.70;;
10283;SDS011;5187;52.378;9.018;2022-08-03T11:49:57;4.72;;;2.08;;
10283;SDS011;5187;52.378;9.018;2022-08-03T11:52:33;3.90;;;1.90;;
10283;SDS011;5187;52.378;9.018;2022-08-03T11:55:02;2.95;;;2.30;;
10283;SDS011;5187;52.378;9.018;2022-08-03T11:57:36;5.00;;;1.90;;
10283;SDS011;5187;52.378;9.018;2022-08-03T12:00:27;2.03;;;1.85;;
10283;SDS011;5187;52.378;9.018;2022-08-03T12:03:11;2.67;;;1.80;;
10283;SDS011;5187;52.378;9.018;2022-08-03T12:05:43;2.70;;;1.92;;
10283;SDS011;5187;52.378;9.018;2022-08-03T12:08:28;2.13;;;1.92;;
10283;SDS011;5187;52.378;9.018;2022-08-03T12:10:58;4.60;;;2.17;;
10283;SDS011;5187;52.378;9.018;2022-08-03T12:13:35;6.03;;;1.90;;
10283;SDS011;5187;52.378;9.018;2022-08-03T12:16:24;2.92;;;1.90;;
10283;SDS011;5187;52.378;9.018;2022-08-03T12:18:59;4.45;;;2.30;;
10283;SDS011;5187;52.378;9.018;2022-08-03T12:21:30;3.05;;;2.10;;
10283;SDS011;5187;52.378;9.018;2022-08-03T12:24:00;3.20;;;2.22;;
10283;SDS011;5187;52.378;9.018;2022-08-03T12:26:41;2.60;;;1.98;;
10283;SDS011;5187;52.378;9.018;2022-08-03T12:29:24;8.15;;;2.00;;
10283;SDS011;5187;52.378;9.018;2022-08-03T12:31:53;4.18;;;1.90;;
10283;SDS011;5187;52.378;9.018;2022-08-03T12:34:24;2.38;;;1.88;;
10283;SDS011;5187;52.378;9.018;2022-08-03T12:37:17;1.88;;;1.70;;
10283;SDS011;5187;52.378;9.018;2022-08-03T12:39:48;4.28;;;2.00;;
10283;SDS011;5187;52.378;9.018;2022-08-03T12:42:30;3.58;;;2.00;;
10283;SDS011;5187;52.378;9.018;2022-08-03T12:47:50;5.63;;;1.80;;
10283;SDS011;5187;52.378;9.018;2022-08-03T12:50:29;3.35;;;2.10;;
10283;SDS011;5187;52.378;9.018;2022-08-03T12:52:58;4.93;;;2.13;;
10283;SDS011;5187;52.378;9.018;2022-08-03T12:55:28;3.38;;;2.03;;
10283;SDS011;5187;52.378;9.018;2022-08-03T12:58:29;2.42;;;1.92;;
10283;SDS011;5187;52.378;9.018;2022-08-03T13:01:00;5.18;;;2.15;;
10283;SDS011;5187;52.378;9.018;2022-08-03T13:03:39;3.40;;;1.88;;
10283;SDS011;5187;52.378;9.018;2022-08-03T13:06:12;2.95;;;1.90;;
10283;SDS011;5187;52.378;9.018;2022-08-03T13:08:42;2.35;;;2.08;;
10283;SDS011;5187;52.378;9.018;2022-08-03T13:11:21;4.55;;;2.22;;
10283;SDS011;5187;52.378;9.018;2022-08-03T13:14:10;2.95;;;1.92;;
10283;SDS011;5187;52.378;9.018;2022-08-03T13:16:45;3.17;;;1.85;;
10283;SDS011;5187;52.378;9.018;2022-08-03T13:19:14;5.22;;;1.90;;
10283;SDS011;5187;52.378;9.018;2022-08-03T13:21:44;3.50;;;2.20;;
10283;SDS011;5187;52.378;9.018;2022-08-03T13:24:29;2.95;;;2.05;;
10283;SDS011;5187;52.378;9.018;2022-08-03T13:26:58;4.95;;;2.08;;
10283;SDS011;5187;52.378;9.018;2022-08-03T13:29:47;3.55;;;2.15;;
10283;SDS011;5187;52.378;9.018;2022-08-03T13:32:16;4.50;;;1.90;;
10283;SDS011;5187;52.378;9.018;2022-08-03T13:34:45;2.83;;;1.80;;
10283;SDS011;5187;52.378;9.018;2022-08-03T13:37:15;3.72;;;2.10;;
10283;SDS011;5187;52.378;9.018;2022-08-03T13:39:43;4.68;;;1.90;;
10283;SDS011;5187;52.378;9.018;2022-08-03T13:42:26;4.53;;;1.83;;
10283;SDS011;5187;52.378;9.018;2022-08-03T13:44:54;4.88;;;2.10;;
10283;SDS011;5187;52.378;9.018;2022-08-03T13:47:23;2.97;;;1.95;;
10283;SDS011;5187;52.378;9.018;2022-08-03T13:49:51;3.85;;;1.80;;
10283;SDS011;5187;52.378;9.018;2022-08-03T13:52:29;2.28;;;1.90;;
10283;SDS011;5187;52.378;9.018;2022-08-03T13:54:58;2.30;;;2.00;;
10283;SDS011;5187;52.378;9.018;2022-08-03T13:57:26;2.35;;;1.90;;
10283;SDS011;5187;52.378;9.018;2022-08-03T14:00:15;2.67;;;1.83;;
10283;SDS011;5187;52.378;9.018;2022-08-03T14:02:53;3.97;;;2.13;;
10283;SDS011;5187;52.378;9.018;2022-08-03T14:05:32;4.93;;;2.28;;
10283;SDS011;5187;52.378;9.018;2022-08-03T14:08:02;2.95;;;2.00;;
10283;SDS011;5187;52.378;9.018;2022-08-03T14:10:32;3.45;;;2.10;;
10283;SDS011;5187;52.378;9.018;2022-08-03T14:13:02;3.63;;;2.15;;
10283;SDS011;5187;52.378;9.018;2022-08-03T14:15:31;5.10;;;2.00;;
10283;SDS011;5187;52.378;9.018;2022-08-03T14:18:03;3.78;;;2.30;;
10283;SDS011;5187;52.378;9.018;2022-08-03T14:20:38;4.25;;;2.00;;
10283;SDS011;5187;52.378;9.018;2022-08-03T14:23:20;5.38;;;2.50;;
10283;SDS011;5187;52.378;9.018;2022-08-03T14:25:49;6.82;;;2.45;;
10283;SDS011;5187;52.378;9.018;2022-08-03T14:28:18;4.22;;;2.38;;
10283;SDS011;5187;52.378;9.018;2022-08-03T14:30:48;5.57;;;2.20;;
10283;SDS011;5187;52.378;9.018;2022-08-03T14:33:16;3.45;;;1.80;;
10283;SDS011;5187;52.378;9.018;2022-08-03T14:35:45;3.83;;;1.90;;
10283;SDS011;5187;52.378;9.018;2022-08-03T14:38:14;3.88;;;2.47;;
10283;SDS011;5187;52.378;9.018;2022-08-03T14:40:44;4.35;;;2.45;;
10283;SDS011;5187;52.378;9.018;2022-08-03T14:43:13;4.57;;;2.05;;
10283;SDS011;5187;52.378;9.018;2022-08-03T14:45:43;3.30;;;1.95;;
10283;SDS011;5187;52.378;9.018;2022-08-03T14:48:12;5.05;;;2.05;;
10283;SDS011;5187;52.378;9.018;2022-08-03T14:51:01;5.57;;;2.45;;
10283;SDS011;5187;52.378;9.018;2022-08-03T14:53:30;3.83;;;2.15;;
10283;SDS011;5187;52.378;9.018;2022-08-03T14:56:00;3.70;;;2.00;;
10283;SDS011;5187;52.378;9.018;2022-08-03T14:58:35;2.85;;;1.80;;
10283;SDS011;5187;52.378;9.018;2022-08-03T15:01:03;3.10;;;1.90;;
10283;SDS011;5187;52.378;9.018;2022-08-03T15:03:52;2.05;;;1.85;;
10283;SDS011;5187;52.378;9.018;2022-08-03T15:06:21;3.65;;;1.98;;
10283;SDS011;5187;52.378;9.018;2022-08-03T15:08:49;3.97;;;2.00;;
10283;SDS011;5187;52.378;9.018;2022-08-03T15:11:39;3.25;;;1.98;;
10283;SDS011;5187;52.378;9.018;2022-08-03T15:14:07;2.97;;;2.05;;
10283;SDS011;5187;52.378;9.018;2022-08-03T15:16:38;2.03;;;1.83;;
10283;SDS011;5187;52.378;9.018;2022-08-03T15:19:07;3.40;;;2.00;;
10283;SDS011;5187;52.378;9.018;2022-08-03T15:21:55;4.15;;;2.10;;
10283;SDS011;5187;52.378;9.018;2022-08-03T15:24:26;2.00;;;1.80;;
10283;SDS011;5187;52.378;9.018;2022-08-03T15:26:56;3.17;;;1.60;;
10283;SDS011;5187;52.378;9.018;2022-08-03T15:29:24;2.80;;;1.98;;
10283;SDS011;5187;52.378;9.018;2022-08-03T15:32:13;6.55;;;2.05;;
10283;SDS011;5187;52.378;9.018;2022-08-03T15:34:41;2.67;;;2.13;;
10283;SDS011;5187;52.378;9.018;2022-08-03T15:37:16;4.57;;;2.10;;
10283;SDS011;5187;52.378;9.018;2022-08-03T15:39:44;5.70;;;2.30;;
10283;SDS011;5187;52.378;9.018;2022-08-03T15:42:27;4.45;;;2.00;;
10283;SDS011;5187;52.378;9.018;2022-08-03T15:44:55;4.90;;;1.90;;
10283;SDS011;5187;52.378;9.018;2022-08-03T15:47:24;3.33;;;2.20;;
10283;SDS011;5187;52.378;9.018;2022-08-03T15:49:53;3.08;;;1.73;;
10283;SDS011;5187;52.378;9.018;2022-08-03T15:52:22;2.15;;;1.70;;
10283;SDS011;5187;52.378;9.018;2022-08-03T15:54:50;4.85;;;2.20;;
10283;SDS011;5187;52.378;9.018;2022-08-03T15:57:19;3.70;;;2.30;;
10283;SDS011;5187;52.378;9.018;2022-08-03T15:59:49;4.40;;;2.20;;
10283;SDS011;5187;52.378;9.018;2022-08-03T16:02:18;6.45;;;2.40;;